Terminal Aerodrome Forecast
Issued by NWS Sterling, VA

Current Version | Previous Version | Graphics & Text | Print | Product List | Glossary Off
Versions: 1 2 3 4 5 6 7 8 9 10 11 12 13

000
FTUS41 KLWX 292323
TAFMRB
TAF
KMRB 292323Z 3000/3024 04004KT P6SM FEW080
     FM300700 36004KT 5SM BR FEW250
     FM301200 VRB03KT P6SM FEW250
     FM301500 VRB03KT P6SM FEW050=

USA.gov is the U.S. government's official web portal to all federal, state and local government web resources and services.